Time;durP1;ratioP1;P1;durP2;ratioP2;P2;SDS_P1;SDS_P2;PMS_P1;PMS_P2;Temp;Humidity;BMP_temperature;BMP_pressure;BME280_temperature;BME280_humidity;BME280_pressure;Samples;Min_cycle;Max_cycle;Signal;HPM_P1;HPM_P2
2023/06/18 00:00:29;;;;;;;7.13;4.33;;;;;;;;;;5087651;28;20030;-65
2023/06/18 00:02:54;;;;;;;8.13;4.35;;;;;;;;;;5078115;28;20263;-67
2023/06/18 00:05:20;;;;;;;6.70;4.38;;;;;;;;;;5075266;28;20473;-63
2023/06/18 00:07:45;;;;;;;7.20;4.47;;;;;;;;;;5088164;28;20057;-65
2023/06/18 00:10:10;;;;;;;7.83;4.47;;;;;;;;;;5090098;27;20624;-67
2023/06/18 00:12:35;;;;;;;7.50;4.60;;;;;;;;;;5072682;28;20114;-67
2023/06/18 00:15:01;;;;;;;6.77;4.30;;;;;;;;;;5085529;27;20395;-65
2023/06/18 00:17:26;;;;;;;6.65;4.20;;;;;;;;;;5077389;28;20027;-67
2023/06/18 00:19:54;;;;;;;6.68;4.45;;;;;;;;;;5089696;27;20058;-64
2023/06/18 00:22:21;;;;;;;7.60;4.75;;;;;;;;;;5089223;27;20043;-65
2023/06/18 00:24:49;;;;;;;8.05;4.72;;;;;;;;;;5070064;28;20114;-67
2023/06/18 00:27:14;;;;;;;8.40;4.68;;;;;;;;;;5084212;28;20039;-66
2023/06/18 00:29:40;;;;;;;8.82;4.90;;;;;;;;;;5086641;27;20016;-63
2023/06/18 00:32:06;;;;;;;8.20;5.00;;;;;;;;;;5083420;28;20028;-66
2023/06/18 00:34:32;;;;;;;6.63;4.53;;;;;;;;;;5075404;28;20513;-66
2023/06/18 00:36:59;;;;;;;6.97;4.50;;;;;;;;;;5090467;27;21366;-66
2023/06/18 00:39:29;;;;;;;7.72;4.40;;;;;;;;;;5073458;28;20039;-68
2023/06/18 00:41:55;;;;;;;9.10;4.85;;;;;;;;;;5073294;28;20024;-66
2023/06/18 00:44:23;;;;;;;7.05;5.07;;;;;;;;;;5085021;28;20013;-66
2023/06/18 00:46:49;;;;;;;6.75;4.68;;;;;;;;;;5084974;28;20023;-65
2023/06/18 00:49:15;;;;;;;7.75;4.80;;;;;;;;;;5086477;27;20012;-66
2023/06/18 00:51:44;;;;;;;6.97;4.90;;;;;;;;;;5079588;28;20036;-68
2023/06/18 00:54:13;;;;;;;7.50;5.03;;;;;;;;;;5068101;28;20024;-65
2023/06/18 00:56:50;;;;;;;8.52;4.70;;;;;;;;;;5094888;27;21866;-68
2023/06/18 00:59:22;;;;;;;6.63;4.60;;;;;;;;;;5085879;27;20465;-65
2023/06/18 01:01:57;;;;;;;7.57;5.10;;;;;;;;;;5066115;27;20052;-66
2023/06/18 01:04:26;;;;;;;7.88;5.38;;;;;;;;;;5089433;28;20019;-65
2023/06/18 01:06:53;;;;;;;7.63;5.65;;;;;;;;;;5078032;28;20024;-67
2023/06/18 01:09:22;;;;;;;9.68;5.10;;;;;;;;;;5072782;28;20020;-65
2023/06/18 01:11:54;;;;;;;8.88;5.43;;;;;;;;;;5074176;28;20035;-65
2023/06/18 01:14:21;;;;;;;8.02;5.32;;;;;;;;;;5068888;28;20493;-64
2023/06/18 01:16:47;;;;;;;6.45;4.80;;;;;;;;;;5071269;28;20043;-66
2023/06/18 01:19:21;;;;;;;8.38;5.38;;;;;;;;;;5071813;28;20016;-68
2023/06/18 01:21:53;;;;;;;8.05;5.25;;;;;;;;;;5092081;28;20035;-65
2023/06/18 01:24:24;;;;;;;8.68;5.55;;;;;;;;;;5069812;28;20020;-65
2023/06/18 01:26:54;;;;;;;8.98;5.68;;;;;;;;;;5070043;28;20035;-65
2023/06/18 01:29:24;;;;;;;8.27;5.47;;;;;;;;;;5085116;28;20019;-67
2023/06/18 01:31:51;;;;;;;7.72;5.55;;;;;;;;;;5070309;28;20051;-63
2023/06/18 01:34:20;;;;;;;8.63;4.88;;;;;;;;;;5091034;28;20023;-63
2023/06/18 01:36:49;;;;;;;7.80;5.50;;;;;;;;;;5079134;28;20035;-64
2023/06/18 01:39:30;;;;;;;9.82;5.97;;;;;;;;;;5084559;28;20088;-64
2023/06/18 01:42:00;;;;;;;8.57;5.82;;;;;;;;;;5073140;28;20027;-66
2023/06/18 01:44:26;;;;;;;;;;;;;;;;;;5082877;28;20043;-65
2023/06/18 01:46:53;;;;;;;9.13;5.78;;;;;;;;;;5084382;28;19991;-66
2023/06/18 01:49:21;;;;;;;7.90;5.30;;;;;;;;;;5076731;28;20080;-67
2023/06/18 01:51:46;;;;;;;8.13;5.63;;;;;;;;;;5089678;28;20054;-66
2023/06/18 01:54:12;;;;;;;7.22;5.22;;;;;;;;;;5074982;28;20646;-63
2023/06/18 01:56:37;;;;;;;10.90;6.03;;;;;;;;;;5060484;28;20093;-67
2023/06/18 01:59:03;;;;;;;8.93;5.60;;;;;;;;;;5090759;28;20031;-64
2023/06/18 02:01:30;;;;;;;8.65;5.80;;;;;;;;;;5067885;28;20035;-65
2023/06/18 02:03:55;;;;;;;8.52;5.50;;;;;;;;;;5069402;28;20088;-64
2023/06/18 02:06:23;;;;;;;8.20;5.70;;;;;;;;;;5065839;28;20028;-65
2023/06/18 02:08:51;;;;;;;8.13;5.75;;;;;;;;;;5086717;28;20024;-67
2023/06/18 02:11:16;;;;;;;10.23;5.65;;;;;;;;;;5069782;28;20023;-66
2023/06/18 02:13:43;;;;;;;7.90;5.57;;;;;;;;;;5089760;28;20073;-67
2023/06/18 02:16:08;;;;;;;9.68;5.50;;;;;;;;;;5085164;28;20320;-66
2023/06/18 02:18:36;;;;;;;9.77;5.90;;;;;;;;;;5068786;28;20111;-65
2023/06/18 02:21:03;;;;;;;9.10;5.38;;;;;;;;;;5087026;28;20277;-66
2023/06/18 02:23:31;;;;;;;7.93;5.85;;;;;;;;;;5066336;28;20035;-66
2023/06/18 02:25:57;;;;;;;8.57;6.07;;;;;;;;;;5086573;28;20030;-66
2023/06/18 02:28:25;;;;;;;8.20;5.50;;;;;;;;;;5082706;28;20031;-64
2023/06/18 02:30:51;;;;;;;8.35;5.57;;;;;;;;;;5072728;28;20016;-66
2023/06/18 02:33:17;;;;;;;7.83;5.30;;;;;;;;;;5085742;28;20456;-65
2023/06/18 02:35:43;;;;;;;8.77;5.28;;;;;;;;;;5066910;28;20256;-68
2023/06/18 02:38:08;;;;;;;9.48;5.75;;;;;;;;;;5073734;28;21067;-68
2023/06/18 02:40:33;;;;;;;8.30;5.43;;;;;;;;;;5064648;28;20028;-68
2023/06/18 02:43:01;;;;;;;7.53;5.17;;;;;;;;;;5071132;28;21533;-67
2023/06/18 02:45:30;;;;;;;7.50;5.25;;;;;;;;;;5081604;28;20111;-68
2023/06/18 02:47:55;;;;;;;9.45;5.13;;;;;;;;;;5066208;28;20028;-66
2023/06/18 02:50:21;;;;;;;9.13;5.30;;;;;;;;;;5075460;28;20674;-65
2023/06/18 02:52:51;;;;;;;8.03;5.47;;;;;;;;;;5071323;28;20051;-67
2023/06/18 02:55:16;;;;;;;7.70;5.25;;;;;;;;;;5085294;28;20249;-68
2023/06/18 02:57:44;;;;;;;8.03;5.50;;;;;;;;;;5065976;28;20050;-67
2023/06/18 03:00:12;;;;;;;8.07;5.35;;;;;;;;;;5081334;28;20330;-67
2023/06/18 03:02:38;;;;;;;7.35;5.28;;;;;;;;;;5090214;28;20024;-69
2023/06/18 03:05:06;;;;;;;8.20;5.35;;;;;;;;;;5073996;28;20575;-68
2023/06/18 03:07:32;;;;;;;8.40;5.43;;;;;;;;;;5071313;28;20024;-69
2023/06/18 03:09:57;;;;;;;8.65;5.10;;;;;;;;;;5073165;28;21293;-67
2023/06/18 03:12:22;;;;;;;8.70;5.50;;;;;;;;;;5081461;28;20048;-67
2023/06/18 03:14:50;;;;;;;8.40;5.45;;;;;;;;;;5086535;28;20019;-66
2023/06/18 03:17:16;;;;;;;8.18;5.40;;;;;;;;;;5081646;28;20761;-69
2023/06/18 03:19:41;;;;;;;8.68;5.43;;;;;;;;;;5067449;28;20027;-66
2023/06/18 03:22:06;;;;;;;6.80;4.90;;;;;;;;;;5061910;28;20028;-66
2023/06/18 03:24:32;;;;;;;9.80;6.00;;;;;;;;;;5081933;28;21047;-64
2023/06/18 03:26:58;;;;;;;10.30;5.30;;;;;;;;;;5080598;28;20043;-68
2023/06/18 03:29:28;;;;;;;7.75;5.25;;;;;;;;;;5086191;28;20034;-66
2023/06/18 03:31:54;;;;;;;8.70;5.25;;;;;;;;;;5070273;28;20084;-62
2023/06/18 03:34:20;;;;;;;8.98;5.53;;;;;;;;;;5084401;28;20019;-66
2023/06/18 03:36:46;;;;;;;7.32;5.47;;;;;;;;;;5076084;28;20032;-65
2023/06/18 03:39:12;;;;;;;7.35;4.90;;;;;;;;;;5071512;28;20649;-69
2023/06/18 03:41:38;;;;;;;10.00;5.70;;;;;;;;;;5074868;28;20024;-65
2023/06/18 03:44:05;;;;;;;7.78;5.57;;;;;;;;;;5070283;27;20102;-64
2023/06/18 03:46:32;;;;;;;7.88;5.40;;;;;;;;;;5085849;27;20044;-65
2023/06/18 03:48:57;;;;;;;8.77;5.30;;;;;;;;;;5095724;28;20037;-65
2023/06/18 03:51:22;;;;;;;9.75;5.55;;;;;;;;;;5087952;28;20028;-68
2023/06/18 03:53:52;;;;;;;7.67;4.70;;;;;;;;;;5088729;28;20679;-66
2023/06/18 03:56:18;;;;;;;8.20;5.35;;;;;;;;;;5072859;28;20418;-68
2023/06/18 03:58:43;;;;;;;7.68;5.25;;;;;;;;;;5089589;28;20140;-67
2023/06/18 04:01:09;;;;;;;9.35;5.38;;;;;;;;;;5075004;28;20046;-63
2023/06/18 04:03:35;;;;;;;8.10;5.25;;;;;;;;;;5085724;28;20138;-68
2023/06/18 04:06:03;;;;;;;9.10;4.88;;;;;;;;;;5078199;28;20724;-67
2023/06/18 04:08:28;;;;;;;7.18;5.15;;;;;;;;;;5069157;28;20020;-63
2023/06/18 04:10:55;;;;;;;8.27;5.10;;;;;;;;;;5088748;28;20024;-66
2023/06/18 04:13:25;;;;;;;7.95;5.05;;;;;;;;;;5072848;28;20020;-66
2023/06/18 04:15:50;;;;;;;9.32;5.35;;;;;;;;;;5072477;28;20051;-63
2023/06/18 04:18:15;;;;;;;7.37;5.30;;;;;;;;;;5087423;28;20095;-66
2023/06/18 04:20:41;;;;;;;9.05;5.90;;;;;;;;;;5094778;28;20249;-65
2023/06/18 04:23:06;;;;;;;7.47;5.40;;;;;;;;;;5085045;27;20027;-68
2023/06/18 04:25:34;;;;;;;7.85;5.13;;;;;;;;;;5098401;27;20623;-67
2023/06/18 04:27:59;;;;;;;8.18;4.78;;;;;;;;;;5085885;27;20023;-68
2023/06/18 04:30:25;;;;;;;8.15;5.35;;;;;;;;;;5070995;28;20051;-64
2023/06/18 04:32:50;;;;;;;8.25;5.57;;;;;;;;;;5088573;27;20101;-67
2023/06/18 04:35:19;;;;;;;8.07;5.70;;;;;;;;;;5073214;28;20536;-68
2023/06/18 04:37:45;;;;;;;8.97;5.93;;;;;;;;;;5074191;28;20273;-66
2023/06/18 04:40:10;;;;;;;8.60;5.40;;;;;;;;;;5084347;28;20026;-66
2023/06/18 04:42:35;;;;;;;8.65;5.50;;;;;;;;;;5086588;28;20047;-66
2023/06/18 04:45:01;;;;;;;7.82;5.32;;;;;;;;;;5090270;28;20075;-63
2023/06/18 04:47:26;;;;;;;9.68;5.57;;;;;;;;;;5076899;28;20267;-68
2023/06/18 04:49:52;;;;;;;9.20;5.40;;;;;;;;;;5070438;28;20051;-68
2023/06/18 04:52:17;;;;;;;8.60;5.57;;;;;;;;;;5071986;28;20662;-66
2023/06/18 04:54:42;;;;;;;9.07;5.53;;;;;;;;;;5088487;27;20264;-67
2023/06/18 04:57:09;;;;;;;7.47;5.32;;;;;;;;;;5067901;28;20273;-67
2023/06/18 04:59:37;;;;;;;8.80;5.50;;;;;;;;;;5075362;28;20025;-66
2023/06/18 05:02:03;;;;;;;8.05;5.93;;;;;;;;;;5084622;27;20024;-64
2023/06/18 05:04:28;;;;;;;8.40;5.93;;;;;;;;;;5094442;27;20023;-65
2023/06/18 05:06:54;;;;;;;7.47;5.25;;;;;;;;;;5086862;28;20027;-68
2023/06/18 05:09:19;;;;;;;8.00;5.73;;;;;;;;;;5091722;28;20394;-62
2023/06/18 05:11:44;;;;;;;9.00;5.87;;;;;;;;;;5084564;28;20406;-68
2023/06/18 05:14:10;;;;;;;8.03;5.80;;;;;;;;;;5077928;28;20931;-65
2023/06/18 05:16:35;;;;;;;10.77;6.22;;;;;;;;;;5084316;27;20289;-61
2023/06/18 05:19:00;;;;;;;10.20;6.00;;;;;;;;;;5085063;27;20518;-63
2023/06/18 05:21:25;;;;;;;11.18;6.43;;;;;;;;;;5091836;28;20369;-65
2023/06/18 05:23:53;;;;;;;8.18;6.03;;;;;;;;;;5082066;28;20084;-66
2023/06/18 05:26:20;;;;;;;8.82;6.05;;;;;;;;;;5087511;27;20046;-67
2023/06/18 05:28:48;;;;;;;9.93;6.18;;;;;;;;;;5065378;28;20619;-67
2023/06/18 05:31:13;;;;;;;9.02;5.97;;;;;;;;;;5084666;27;20114;-65
2023/06/18 05:33:41;;;;;;;9.47;5.90;;;;;;;;;;5072640;28;20084;-67
2023/06/18 05:36:06;;;;;;;9.27;5.90;;;;;;;;;;5069515;28;20274;-67
2023/06/18 05:38:34;;;;;;;9.13;5.77;;;;;;;;;;5090415;28;20026;-67
2023/06/18 05:41:03;;;;;;;8.50;5.87;;;;;;;;;;5068798;28;20877;-66
2023/06/18 05:43:30;;;;;;;9.88;5.53;;;;;;;;;;5087963;28;20023;-67
2023/06/18 05:45:57;;;;;;;8.77;5.68;;;;;;;;;;5084548;28;20699;-67
2023/06/18 05:48:22;;;;;;;7.93;5.72;;;;;;;;;;5077065;28;20027;-69
2023/06/18 05:50:47;;;;;;;8.43;5.65;;;;;;;;;;5068761;28;20020;-65
2023/06/18 05:53:13;;;;;;;8.60;6.05;;;;;;;;;;5062966;28;20034;-67
2023/06/18 05:55:38;;;;;;;10.20;6.30;;;;;;;;;;5092738;28;20695;-64
2023/06/18 05:58:04;;;;;;;8.47;5.97;;;;;;;;;;5082255;28;20027;-68
2023/06/18 06:00:30;;;;;;;8.82;6.32;;;;;;;;;;5077987;28;21041;-65
2023/06/18 06:02:58;;;;;;;9.77;6.00;;;;;;;;;;5065981;28;20028;-65
2023/06/18 06:05:25;;;;;;;9.02;6.15;;;;;;;;;;5079951;28;20050;-64
2023/06/18 06:07:50;;;;;;;8.55;5.65;;;;;;;;;;5082830;28;20027;-69
2023/06/18 06:10:17;;;;;;;8.37;5.53;;;;;;;;;;5072745;28;20042;-65
2023/06/18 06:12:42;;;;;;;10.50;6.28;;;;;;;;;;5078376;28;20612;-66
2023/06/18 06:15:09;;;;;;;8.10;5.87;;;;;;;;;;5086388;28;20058;-66
2023/06/18 06:17:37;;;;;;;9.73;6.03;;;;;;;;;;5073597;28;20376;-67
2023/06/18 06:20:05;;;;;;;8.30;5.70;;;;;;;;;;5081065;28;20063;-69
2023/06/18 06:22:31;;;;;;;9.80;6.33;;;;;;;;;;5071838;28;20096;-68
2023/06/18 06:24:57;;;;;;;10.37;6.07;;;;;;;;;;5088994;28;21185;-65
2023/06/18 06:27:24;;;;;;;8.60;6.22;;;;;;;;;;5075548;28;20325;-67
2023/06/18 06:29:50;;;;;;;9.10;6.22;;;;;;;;;;5069128;28;20024;-65
2023/06/18 06:32:15;;;;;;;8.52;5.93;;;;;;;;;;5086189;28;20049;-66
2023/06/18 06:34:40;;;;;;;9.20;5.82;;;;;;;;;;5081282;28;20022;-68
2023/06/18 06:37:06;;;;;;;10.52;6.22;;;;;;;;;;5075117;28;20031;-67
2023/06/18 06:39:31;;;;;;;10.52;6.57;;;;;;;;;;5085705;28;20855;-66
2023/06/18 06:41:56;;;;;;;9.30;6.53;;;;;;;;;;5067763;28;20036;-67
2023/06/18 06:44:22;;;;;;;9.20;6.37;;;;;;;;;;5084915;28;20258;-67
2023/06/18 06:46:47;;;;;;;8.03;5.60;;;;;;;;;;5086475;28;20023;-68
2023/06/18 06:49:12;;;;;;;10.50;5.87;;;;;;;;;;5070295;28;20691;-67
2023/06/18 06:51:38;;;;;;;8.57;5.83;;;;;;;;;;5067411;28;20266;-67
2023/06/18 06:54:04;;;;;;;9.05;5.90;;;;;;;;;;5070405;28;20803;-67
2023/06/18 06:56:30;;;;;;;9.35;6.47;;;;;;;;;;5069523;28;20024;-65
2023/06/18 06:58:59;;;;;;;8.77;6.28;;;;;;;;;;5089297;28;20069;-64
2023/06/18 07:01:24;;;;;;;9.50;5.75;;;;;;;;;;5081693;28;20107;-64
2023/06/18 07:03:49;;;;;;;9.52;5.78;;;;;;;;;;5087534;28;20119;-68
2023/06/18 07:06:17;;;;;;;8.97;5.97;;;;;;;;;;5066770;28;20482;-69
2023/06/18 07:08:42;;;;;;;9.57;6.15;;;;;;;;;;5086587;28;20050;-65
2023/06/18 07:11:10;;;;;;;9.18;5.78;;;;;;;;;;5091947;27;20127;-69
2023/06/18 07:13:35;;;;;;;8.65;5.82;;;;;;;;;;5085171;27;20020;-66
2023/06/18 07:16:01;;;;;;;9.05;6.00;;;;;;;;;;5093752;27;20445;-68
2023/06/18 07:18:26;;;;;;;8.77;5.67;;;;;;;;;;5084968;28;20103;-66
2023/06/18 07:20:51;;;;;;;9.50;5.47;;;;;;;;;;5087460;28;20265;-68
2023/06/18 07:23:19;;;;;;;8.70;5.82;;;;;;;;;;5069291;28;20039;-65
2023/06/18 07:25:47;;;;;;;9.07;5.75;;;;;;;;;;5090540;28;20020;-66
2023/06/18 07:28:14;;;;;;;8.50;5.70;;;;;;;;;;5086756;27;20023;-66
2023/06/18 07:30:42;;;;;;;8.13;5.60;;;;;;;;;;5078435;28;20682;-69
2023/06/18 07:33:07;;;;;;;8.98;5.63;;;;;;;;;;5075441;28;20031;-68
2023/06/18 07:35:32;;;;;;;9.97;5.93;;;;;;;;;;5068223;28;21569;-68
2023/06/18 07:37:57;;;;;;;8.50;5.93;;;;;;;;;;5076369;28;21641;-66
2023/06/18 07:40:23;;;;;;;8.02;5.63;;;;;;;;;;5067079;28;20381;-66
2023/06/18 07:42:50;;;;;;;9.10;6.50;;;;;;;;;;5089833;28;20016;-67
2023/06/18 07:45:16;;;;;;;9.00;6.40;;;;;;;;;;5085213;27;20058;-69
2023/06/18 07:47:43;;;;;;;8.10;5.53;;;;;;;;;;5067231;27;20114;-63
2023/06/18 07:50:09;;;;;;;8.65;5.25;;;;;;;;;;5089227;28;20303;-67
2023/06/18 07:52:34;;;;;;;9.10;6.47;;;;;;;;;;5087902;28;21362;-69
2023/06/18 07:54:59;;;;;;;9.07;6.23;;;;;;;;;;5077295;27;20016;-66
2023/06/18 07:57:25;;;;;;;8.57;6.47;;;;;;;;;;5083687;27;20944;-63
2023/06/18 07:59:50;;;;;;;9.33;6.30;;;;;;;;;;5085996;28;20034;-67
2023/06/18 08:02:15;;;;;;;8.60;6.67;;;;;;;;;;5071250;28;20028;-65
2023/06/18 08:04:42;;;;;;;9.93;6.10;;;;;;;;;;5091753;27;20269;-66
2023/06/18 08:07:08;;;;;;;8.35;5.60;;;;;;;;;;5071324;28;20277;-69
2023/06/18 08:09:33;;;;;;;8.85;6.57;;;;;;;;;;5088499;28;20549;-69
2023/06/18 08:12:01;;;;;;;9.15;6.30;;;;;;;;;;5087623;28;20015;-63
2023/06/18 08:14:31;;;;;;;10.00;5.90;;;;;;;;;;5089578;27;20621;-66
2023/06/18 08:16:57;;;;;;;8.35;6.28;;;;;;;;;;5080421;27;20162;-66
2023/06/18 08:19:24;;;;;;;10.05;5.97;;;;;;;;;;5081710;28;20423;-67
2023/06/18 08:21:49;;;;;;;9.80;5.88;;;;;;;;;;5079239;27;20028;-65
2023/06/18 08:24:17;;;;;;;7.78;5.50;;;;;;;;;;5068560;28;20065;-67
2023/06/18 08:26:43;;;;;;;8.80;6.30;;;;;;;;;;5067644;28;20510;-64
2023/06/18 08:29:09;;;;;;;9.35;5.53;;;;;;;;;;5084123;27;20038;-67
2023/06/18 08:31:34;;;;;;;9.05;5.60;;;;;;;;;;5086270;27;20030;-66
2023/06/18 08:34:02;;;;;;;8.15;6.28;;;;;;;;;;5088829;28;20082;-65
2023/06/18 08:36:29;;;;;;;7.95;5.60;;;;;;;;;;5066133;28;20684;-67
2023/06/18 08:38:55;;;;;;;8.43;5.57;;;;;;;;;;5073159;28;20258;-69
2023/06/18 08:41:21;;;;;;;8.13;5.63;;;;;;;;;;5084927;27;20474;-67
2023/06/18 08:43:46;;;;;;;7.80;5.35;;;;;;;;;;5076395;28;20261;-64
2023/06/18 08:46:18;;;;;;;8.00;5.60;;;;;;;;;;5082406;28;20031;-67
2023/06/18 08:48:52;;;;;;;9.48;6.07;;;;;;;;;;5069538;28;20058;-68
2023/06/18 08:51:20;;;;;;;8.32;5.75;;;;;;;;;;5086744;28;20087;-63
2023/06/18 08:53:57;;;;;;;8.05;5.85;;;;;;;;;;5088689;28;20518;-65
2023/06/18 08:56:26;;;;;;;8.50;5.38;;;;;;;;;;5074918;28;20052;-68
2023/06/18 08:58:52;;;;;;;7.85;5.70;;;;;;;;;;5065341;27;20097;-67
2023/06/18 09:01:21;;;;;;;7.80;5.82;;;;;;;;;;5086845;27;20023;-64
2023/06/18 09:03:47;;;;;;;8.50;5.63;;;;;;;;;;5069420;28;20012;-65
2023/06/18 09:06:12;;;;;;;7.70;5.65;;;;;;;;;;5068118;28;20050;-68
2023/06/18 09:08:38;;;;;;;8.52;5.70;;;;;;;;;;5072513;28;20054;-64
2023/06/18 09:11:04;;;;;;;8.00;5.97;;;;;;;;;;5089092;28;20027;-66
2023/06/18 09:13:32;;;;;;;7.80;5.95;;;;;;;;;;5084842;28;20020;-68
2023/06/18 09:16:02;;;;;;;7.78;5.60;;;;;;;;;;5069079;28;20110;-68
2023/06/18 09:18:27;;;;;;;7.63;5.60;;;;;;;;;;5093782;27;20072;-68
2023/06/18 09:20:53;;;;;;;11.93;6.18;;;;;;;;;;5085320;27;20138;-67
2023/06/18 09:23:18;;;;;;;9.15;6.38;;;;;;;;;;5087240;28;20016;-69
2023/06/18 09:25:53;;;;;;;7.80;5.53;;;;;;;;;;5069840;27;20072;-67
2023/06/18 09:28:21;;;;;;;7.88;5.80;;;;;;;;;;5074170;28;20115;-68
2023/06/18 09:30:51;;;;;;;9.15;5.90;;;;;;;;;;5085259;27;20131;-64
2023/06/18 09:33:26;;;;;;;9.15;5.95;;;;;;;;;;5090374;28;20406;-66
2023/06/18 09:35:57;;;;;;;7.68;5.70;;;;;;;;;;5075024;27;20110;-66
2023/06/18 09:38:22;;;;;;;9.30;6.15;;;;;;;;;;5083757;28;20122;-65
2023/06/18 09:40:48;;;;;;;8.02;6.10;;;;;;;;;;5087304;28;20028;-66
2023/06/18 09:43:16;;;;;;;7.75;5.75;;;;;;;;;;5068444;28;20462;-64
2023/06/18 09:45:41;;;;;;;10.27;6.20;;;;;;;;;;5067606;28;20027;-66
2023/06/18 09:48:07;;;;;;;8.55;6.18;;;;;;;;;;5067166;28;20284;-66
2023/06/18 09:50:32;;;;;;;9.63;6.00;;;;;;;;;;5089884;28;20024;-66
2023/06/18 09:53:00;;;;;;;8.83;6.40;;;;;;;;;;5082060;27;20030;-67
2023/06/18 09:55:25;;;;;;;8.00;5.97;;;;;;;;;;5067834;28;20032;-63
2023/06/18 09:57:53;;;;;;;9.30;5.90;;;;;;;;;;5061482;28;20583;-66
2023/06/18 10:00:21;;;;;;;8.68;6.00;;;;;;;;;;5079774;27;20024;-67
2023/06/18 10:02:46;;;;;;;9.18;6.15;;;;;;;;;;5075296;28;20027;-63
2023/06/18 10:05:11;;;;;;;7.57;5.67;;;;;;;;;;5063086;28;20039;-62
2023/06/18 10:07:40;;;;;;;9.48;6.25;;;;;;;;;;5071124;28;20055;-66
2023/06/18 10:10:07;;;;;;;8.23;6.03;;;;;;;;;;5059962;28;21096;-63
2023/06/18 10:12:32;;;;;;;9.48;6.35;;;;;;;;;;5077740;28;20024;-65
2023/06/18 10:14:58;;;;;;;9.27;6.13;;;;;;;;;;5077939;28;20101;-67
2023/06/18 10:17:26;;;;;;;9.03;6.13;;;;;;;;;;5079418;28;20712;-65
2023/06/18 10:20:07;;;;;;;8.73;6.20;;;;;;;;;;5058290;28;20676;-66
2023/06/18 10:22:55;;;;;;;10.00;6.68;;;;;;;;;;5076147;28;20061;-63
2023/06/18 10:25:21;;;;;;;8.40;6.40;;;;;;;;;;5065776;28;20043;-65
2023/06/18 10:27:47;;;;;;;8.88;6.35;;;;;;;;;;5072664;28;20028;-65
2023/06/18 10:30:13;;;;;;;9.82;6.57;;;;;;;;;;5065299;28;20053;-65
2023/06/18 10:32:38;;;;;;;9.05;6.93;;;;;;;;;;5071946;28;20039;-64
2023/06/18 10:35:07;;;;;;;9.57;6.80;;;;;;;;;;5061523;28;20118;-64
2023/06/18 10:37:34;;;;;;;14.20;7.00;;;;;;;;;;5075363;28;20089;-63
2023/06/18 10:39:59;;;;;;;8.43;6.43;;;;;;;;;;5066511;28;20038;-61
2023/06/18 10:42:24;;;;;;;8.90;6.32;;;;;;;;;;5079833;27;20015;-62
2023/06/18 10:44:52;;;;;;;9.23;6.87;;;;;;;;;;5081045;27;20065;-61
2023/06/18 10:47:30;;;;;;;8.93;6.65;;;;;;;;;;5083569;27;20036;-62
2023/06/18 10:50:02;;;;;;;8.68;6.53;;;;;;;;;;5080221;27;20072;-64
2023/06/18 10:52:38;;;;;;;9.05;6.00;;;;;;;;;;5086600;28;20509;-64
2023/06/18 10:55:14;;;;;;;9.02;6.85;;;;;;;;;;5061701;28;20030;-62
2023/06/18 10:57:40;;;;;;;8.13;6.43;;;;;;;;;;5084416;27;20131;-61
2023/06/18 11:00:16;;;;;;;8.73;6.45;;;;;;;;;;5080359;27;20020;-60
2023/06/18 11:02:41;;;;;;;10.10;6.25;;;;;;;;;;5065718;27;20020;-61
2023/06/18 11:05:13;;;;;;;9.80;6.18;;;;;;;;;;5081759;27;20063;-62
2023/06/18 11:07:39;;;;;;;8.00;6.15;;;;;;;;;;5080060;27;20031;-59
2023/06/18 11:10:05;;;;;;;9.20;6.43;;;;;;;;;;5082841;27;20895;-65
2023/06/18 11:12:34;;;;;;;8.68;6.05;;;;;;;;;;5079759;27;20024;-62
2023/06/18 11:15:19;;;;;;;9.15;6.95;;;;;;;;;;5083972;27;20046;-60
2023/06/18 11:17:49;;;;;;;9.50;6.70;;;;;;;;;;5073850;28;20020;-66
2023/06/18 11:20:16;;;;;;;9.32;6.38;;;;;;;;;;5068145;27;20043;-63
2023/06/18 11:22:41;;;;;;;8.68;6.72;;;;;;;;;;5084806;27;20391;-63
2023/06/18 11:25:10;;;;;;;9.80;6.20;;;;;;;;;;5081648;27;20022;-62
2023/06/18 11:27:38;;;;;;;8.65;6.32;;;;;;;;;;5083223;27;20321;-64
2023/06/18 11:30:04;;;;;;;9.30;6.72;;;;;;;;;;5069331;28;20024;-64
2023/06/18 11:32:31;;;;;;;8.38;5.70;;;;;;;;;;5068728;27;20024;-59
2023/06/18 11:34:59;;;;;;;10.07;5.90;;;;;;;;;;5066793;27;20882;-62
2023/06/18 11:37:27;;;;;;;8.40;6.50;;;;;;;;;;5091524;27;20074;-63
2023/06/18 11:39:53;;;;;;;8.15;6.15;;;;;;;;;;5091479;28;20385;-66
2023/06/18 11:42:22;;;;;;;7.80;6.25;;;;;;;;;;5074476;28;20016;-63
2023/06/18 11:44:47;;;;;;;9.55;6.38;;;;;;;;;;5093722;27;20119;-65
2023/06/18 11:47:13;;;;;;;8.98;6.50;;;;;;;;;;5085037;27;20465;-63
2023/06/18 11:49:43;;;;;;;7.88;6.20;;;;;;;;;;5072854;28;20545;-61
2023/06/18 11:52:08;;;;;;;8.85;6.15;;;;;;;;;;5087596;27;20016;-65
2023/06/18 11:54:35;;;;;;;9.25;5.78;;;;;;;;;;5062746;28;20039;-63
2023/06/18 11:57:00;;;;;;;7.57;5.78;;;;;;;;;;5084191;27;20742;-65
2023/06/18 11:59:28;;;;;;;8.30;5.85;;;;;;;;;;5069136;27;20118;-64
2023/06/18 12:01:53;;;;;;;9.68;6.07;;;;;;;;;;5086936;27;20015;-65
2023/06/18 12:04:19;;;;;;;9.07;6.33;;;;;;;;;;5085965;27;20027;-66
2023/06/18 12:06:46;;;;;;;8.20;6.17;;;;;;;;;;5084506;28;21402;-64
2023/06/18 12:09:11;;;;;;;7.97;6.05;;;;;;;;;;5088222;27;20254;-65
2023/06/18 12:11:55;;;;;;;9.17;6.30;;;;;;;;;;5066129;28;20133;-66
2023/06/18 12:14:33;;;;;;;8.27;6.30;;;;;;;;;;5086627;27;20089;-64
2023/06/18 12:17:03;;;;;;;8.57;6.55;;;;;;;;;;5069871;28;20646;-63
2023/06/18 12:19:32;;;;;;;8.00;6.07;;;;;;;;;;5073171;28;20032;-62
2023/06/18 12:21:58;;;;;;;10.20;6.43;;;;;;;;;;5085590;28;20031;-66
2023/06/18 12:24:26;;;;;;;7.70;6.25;;;;;;;;;;5072553;28;20649;-61
2023/06/18 12:26:51;;;;;;;8.30;6.30;;;;;;;;;;5086613;27;20045;-67
2023/06/18 12:29:20;;;;;;;9.32;5.93;;;;;;;;;;5086790;27;20059;-67
2023/06/18 12:31:59;;;;;;;8.73;6.20;;;;;;;;;;5067079;28;20034;-63
2023/06/18 12:34:25;;;;;;;8.52;6.60;;;;;;;;;;5073933;28;20023;-64
2023/06/18 12:36:53;;;;;;;9.25;6.30;;;;;;;;;;5086309;28;20026;-63
2023/06/18 12:39:18;;;;;;;8.68;7.07;;;;;;;;;;5084953;28;20028;-66
2023/06/18 12:41:46;;;;;;;8.13;6.20;;;;;;;;;;5073521;28;20058;-63
2023/06/18 12:44:14;;;;;;;10.13;6.45;;;;;;;;;;5081754;27;20813;-64
2023/06/18 12:46:43;;;;;;;8.93;6.30;;;;;;;;;;5085770;28;20026;-66
2023/06/18 12:49:11;;;;;;;7.90;6.30;;;;;;;;;;5082095;28;20019;-59
2023/06/18 12:51:46;;;;;;;8.17;6.00;;;;;;;;;;5069282;28;20039;-64
2023/06/18 12:54:12;;;;;;;8.50;6.47;;;;;;;;;;5077421;28;20153;-65
2023/06/18 12:56:45;;;;;;;8.43;6.57;;;;;;;;;;5085055;28;20027;-63
2023/06/18 12:59:16;;;;;;;8.55;6.18;;;;;;;;;;5076407;28;20527;-61
2023/06/18 13:01:41;;;;;;;8.70;6.20;;;;;;;;;;5064762;28;21303;-63
2023/06/18 13:04:09;;;;;;;9.27;6.32;;;;;;;;;;5090641;27;20123;-67
2023/06/18 13:06:34;;;;;;;9.35;6.03;;;;;;;;;;5064914;28;20031;-64
2023/06/18 13:09:00;;;;;;;7.75;5.95;;;;;;;;;;5090969;27;20024;-64
2023/06/18 13:11:27;;;;;;;8.00;6.00;;;;;;;;;;5078408;27;20020;-63
2023/06/18 13:13:53;;;;;;;7.95;6.32;;;;;;;;;;5091596;27;20080;-64
2023/06/18 13:16:18;;;;;;;10.70;6.07;;;;;;;;;;5073059;28;20061;-64
2023/06/18 13:18:44;;;;;;;9.30;5.90;;;;;;;;;;5084257;27;20273;-65
2023/06/18 13:21:12;;;;;;;8.40;6.20;;;;;;;;;;5092867;28;20070;-62
2023/06/18 13:23:37;;;;;;;8.45;5.95;;;;;;;;;;5082011;27;20019;-61
2023/06/18 13:26:03;;;;;;;10.90;5.77;;;;;;;;;;5082174;27;20050;-65
2023/06/18 13:28:28;;;;;;;8.88;5.90;;;;;;;;;;5077612;27;20100;-62
2023/06/18 13:30:53;;;;;;;8.47;5.63;;;;;;;;;;5072179;28;20437;-65
2023/06/18 13:33:19;;;;;;;7.83;5.47;;;;;;;;;;5078177;28;20078;-64
2023/06/18 13:35:45;;;;;;;7.45;5.35;;;;;;;;;;5086888;27;20016;-66
2023/06/18 13:38:10;;;;;;;8.00;5.43;;;;;;;;;;5085561;28;20030;-66
2023/06/18 13:40:36;;;;;;;7.63;5.20;;;;;;;;;;5091143;27;20031;-64
2023/06/18 13:43:06;;;;;;;9.57;5.10;;;;;;;;;;5066817;28;20024;-64
2023/06/18 13:45:32;;;;;;;8.57;5.45;;;;;;;;;;5070015;28;21096;-64
2023/06/18 13:47:57;;;;;;;8.13;5.32;;;;;;;;;;5086173;28;20019;-63
2023/06/18 13:50:22;;;;;;;7.63;5.73;;;;;;;;;;5085951;28;20104;-62
2023/06/18 13:52:47;;;;;;;8.48;5.10;;;;;;;;;;5092040;28;20551;-64
2023/06/18 13:55:13;;;;;;;7.60;5.50;;;;;;;;;;5070750;27;20096;-67
2023/06/18 13:57:41;;;;;;;7.57;5.07;;;;;;;;;;5064822;28;20489;-64
2023/06/18 14:00:07;;;;;;;7.03;4.97;;;;;;;;;;5086560;27;20284;-65
2023/06/18 14:02:33;;;;;;;7.03;5.00;;;;;;;;;;5082065;27;20205;-60
2023/06/18 14:05:00;;;;;;;8.48;5.18;;;;;;;;;;5084832;28;20020;-67
2023/06/18 14:07:30;;;;;;;9.02;4.95;;;;;;;;;;5086290;27;21141;-60
2023/06/18 14:09:57;;;;;;;8.05;5.50;;;;;;;;;;5069725;28;20738;-62
2023/06/18 14:12:24;;;;;;;7.90;5.03;;;;;;;;;;5077913;27;20020;-64
2023/06/18 14:14:50;;;;;;;7.95;5.00;;;;;;;;;;5082206;28;20057;-64
2023/06/18 14:17:15;;;;;;;8.05;5.10;;;;;;;;;;5084125;27;20034;-63
2023/06/18 14:19:40;;;;;;;7.27;5.07;;;;;;;;;;5096974;27;21120;-60
2023/06/18 14:22:06;;;;;;;7.47;5.37;;;;;;;;;;5090848;27;20019;-63
2023/06/18 14:24:34;;;;;;;8.88;4.85;;;;;;;;;;5063513;28;20273;-61
2023/06/18 14:27:00;;;;;;;7.97;4.97;;;;;;;;;;5075881;28;20024;-66
2023/06/18 14:29:25;;;;;;;8.88;5.15;;;;;;;;;;5071813;28;20531;-63
2023/06/18 14:31:51;;;;;;;6.90;5.20;;;;;;;;;;5079247;28;20023;-64
2023/06/18 14:34:16;;;;;;;7.30;4.97;;;;;;;;;;5067152;28;20493;-63
2023/06/18 14:36:41;;;;;;;6.40;4.95;;;;;;;;;;5063691;28;20051;-64
2023/06/18 14:39:07;;;;;;;6.77;4.80;;;;;;;;;;5086118;28;20020;-65
2023/06/18 14:41:33;;;;;;;9.35;5.00;;;;;;;;;;5082232;28;20289;-65